sensor_id;sensor_type;location;lat;lon;timestamp;pressure;altitude;pressure_sealevel;temperature
35960;BMP280;22043;50.970;7.192;2023-05-14T00:02:19;99479.44;;;11.93
35960;BMP280;22043;50.970;7.192;2023-05-14T00:04:45;99478.25;;;11.94
35960;BMP280;22043;50.970;7.192;2023-05-14T00:07:10;99469.75;;;11.89
35960;BMP280;22043;50.970;7.192;2023-05-14T00:09:36;99468.47;;;11.97
35960;BMP280;22043;50.970;7.192;2023-05-14T00:12:02;99475.84;;;12.00
35960;BMP280;22043;50.970;7.192;2023-05-14T00:14:27;99462.66;;;11.95
35960;BMP280;22043;50.970;7.192;2023-05-14T00:16:53;99459.59;;;11.89
35960;BMP280;22043;50.970;7.192;2023-05-14T00:19:18;99471.97;;;11.97
35960;BMP280;22043;50.970;7.192;2023-05-14T00:21:45;99475.38;;;12.05
35960;BMP280;22043;50.970;7.192;2023-05-14T00:24:11;99464.88;;;12.03
35960;BMP280;22043;50.970;7.192;2023-05-14T00:26:43;99467.19;;;12.05
35960;BMP280;22043;50.970;7.192;2023-05-14T00:29:09;99454.44;;;11.95
35960;BMP280;22043;50.970;7.192;2023-05-14T00:31:34;99460.16;;;12.04
35960;BMP280;22043;50.970;7.192;2023-05-14T00:34:01;99456.31;;;12.01
35960;BMP280;22043;50.970;7.192;2023-05-14T00:36:27;99462.59;;;11.98
35960;BMP280;22043;50.970;7.192;2023-05-14T00:38:52;99456.31;;;12.01
35960;BMP280;22043;50.970;7.192;2023-05-14T00:41:18;99434.56;;;11.94
35960;BMP280;22043;50.970;7.192;2023-05-14T00:43:43;99447.66;;;12.03
35960;BMP280;22043;50.970;7.192;2023-05-14T00:46:09;99437.97;;;12.02
35960;BMP280;22043;50.970;7.192;2023-05-14T00:48:36;99441.88;;;12.01
35960;BMP280;22043;50.970;7.192;2023-05-14T00:51:02;99444.66;;;11.97
35960;BMP280;22043;50.970;7.192;2023-05-14T00:53:28;99446.94;;;12.02
35960;BMP280;22043;50.970;7.192;2023-05-14T00:55:54;99433.44;;;11.92
35960;BMP280;22043;50.970;7.192;2023-05-14T00:58:20;99442.34;;;11.96
35960;BMP280;22043;50.970;7.192;2023-05-14T01:00:46;99436.53;;;11.90
35960;BMP280;22043;50.970;7.192;2023-05-14T01:14:36;99447.16;;;11.88
35960;BMP280;22043;50.970;7.192;2023-05-14T01:17:03;99416.84;;;11.79
35960;BMP280;22043;50.970;7.192;2023-05-14T01:19:38;99431.56;;;11.85
35960;BMP280;22043;50.970;7.192;2023-05-14T01:22:04;99426.56;;;11.80
35960;BMP280;22043;50.970;7.192;2023-05-14T01:24:30;99435.78;;;11.90
35960;BMP280;22043;50.970;7.192;2023-05-14T01:27:02;99415.66;;;11.80
35960;BMP280;22043;50.970;7.192;2023-05-14T01:29:42;99414.44;;;11.81
35960;BMP280;22043;50.970;7.192;2023-05-14T01:32:09;99414.16;;;11.75
35960;BMP280;22043;50.970;7.192;2023-05-14T01:34:36;99433.53;;;11.85
35960;BMP280;22043;50.970;7.192;2023-05-14T01:37:05;99413.78;;;11.73
35960;BMP280;22043;50.970;7.192;2023-05-14T01:39:31;99407.66;;;11.66
35960;BMP280;22043;50.970;7.192;2023-05-14T01:41:58;99411.91;;;11.70
35960;BMP280;22043;50.970;7.192;2023-05-14T01:44:25;99428.56;;;11.76
35960;BMP280;22043;50.970;7.192;2023-05-14T01:46:51;99406.03;;;11.68
35960;BMP280;22043;50.970;7.192;2023-05-14T01:49:17;99415.84;;;11.66
35960;BMP280;22043;50.970;7.192;2023-05-14T01:51:44;99414.66;;;11.67
35960;BMP280;22043;50.970;7.192;2023-05-14T01:54:10;99404.28;;;11.55
35960;BMP280;22043;50.970;7.192;2023-05-14T01:56:35;99405.44;;;11.57
35960;BMP280;22043;50.970;7.192;2023-05-14T01:59:01;99402.75;;;11.54
35960;BMP280;22043;50.970;7.192;2023-05-14T02:01:26;99405.06;;;11.55
35960;BMP280;22043;50.970;7.192;2023-05-14T02:03:52;99417.91;;;11.58
35960;BMP280;22043;50.970;7.192;2023-05-14T02:06:18;99407.53;;;11.46
35960;BMP280;22043;50.970;7.192;2023-05-14T02:08:43;99395.44;;;11.47
35960;BMP280;22043;50.970;7.192;2023-05-14T02:11:09;99402.41;;;11.48
35960;BMP280;22043;50.970;7.192;2023-05-14T02:13:34;99406.34;;;11.47
35960;BMP280;22043;50.970;7.192;2023-05-14T02:16:00;99404.16;;;11.35
35960;BMP280;22043;50.970;7.192;2023-05-14T02:18:28;99408.50;;;11.32
35960;BMP280;22043;50.970;7.192;2023-05-14T02:20:54;99391.19;;;11.12
35960;BMP280;22043;50.970;7.192;2023-05-14T02:23:23;99388.13;;;11.06
35960;BMP280;22043;50.970;7.192;2023-05-14T02:25:51;99387.44;;;10.99
35960;BMP280;22043;50.970;7.192;2023-05-14T02:28:17;99400.97;;;11.09
35960;BMP280;22043;50.970;7.192;2023-05-14T02:30:43;99378.16;;;10.92
35960;BMP280;22043;50.970;7.192;2023-05-14T02:33:09;99377.78;;;10.90
35960;BMP280;22043;50.970;7.192;2023-05-14T02:35:38;99378.47;;;10.98
35960;BMP280;22043;50.970;7.192;2023-05-14T02:38:04;99375.88;;;10.87
35960;BMP280;22043;50.970;7.192;2023-05-14T02:40:31;99372.38;;;10.87
35960;BMP280;22043;50.970;7.192;2023-05-14T02:42:57;99396.28;;;11.06
35960;BMP280;22043;50.970;7.192;2023-05-14T02:45:23;99393.97;;;11.05
35960;BMP280;22043;50.970;7.192;2023-05-14T02:48:00;99390.06;;;11.06
35960;BMP280;22043;50.970;7.192;2023-05-14T02:50:29;99393.28;;;10.97
35960;BMP280;22043;50.970;7.192;2023-05-14T02:52:55;99400.66;;;11.00
35960;BMP280;22043;50.970;7.192;2023-05-14T02:55:24;99375.47;;;10.89
35960;BMP280;22043;50.970;7.192;2023-05-14T02:57:54;99386.75;;;10.91
35960;BMP280;22043;50.970;7.192;2023-05-14T03:00:21;99407.56;;;11.12
35960;BMP280;22043;50.970;7.192;2023-05-14T03:02:53;99387.88;;;10.93
35960;BMP280;22043;50.970;7.192;2023-05-14T03:05:22;99385.97;;;10.90
35960;BMP280;22043;50.970;7.192;2023-05-14T03:07:49;99408.84;;;11.00
35960;BMP280;22043;50.970;7.192;2023-05-14T03:10:18;99385.63;;;10.85
35960;BMP280;22043;50.970;7.192;2023-05-14T03:12:50;99384.84;;;10.88
35960;BMP280;22043;50.970;7.192;2023-05-14T03:15:19;99375.53;;;10.82
35960;BMP280;22043;50.970;7.192;2023-05-14T03:17:45;99387.81;;;10.97
35960;BMP280;22043;50.970;7.192;2023-05-14T03:20:17;99374.25;;;10.93
35960;BMP280;22043;50.970;7.192;2023-05-14T03:22:45;99373.44;;;10.97
35960;BMP280;22043;50.970;7.192;2023-05-14T03:25:14;99393.50;;;11.13
35960;BMP280;22043;50.970;7.192;2023-05-14T03:27:40;99379.63;;;11.01
35960;BMP280;22043;50.970;7.192;2023-05-14T03:30:19;99383.41;;;11.10
35960;BMP280;22043;50.970;7.192;2023-05-14T03:32:56;99373.44;;;10.97
35960;BMP280;22043;50.970;7.192;2023-05-14T03:35:22;99370.75;;;10.93
35960;BMP280;22043;50.970;7.192;2023-05-14T03:37:51;99374.25;;;10.93
35960;BMP280;22043;50.970;7.192;2023-05-14T03:40:22;99370.38;;;10.91
35960;BMP280;22043;50.970;7.192;2023-05-14T03:42:49;99362.19;;;10.91
35960;BMP280;22043;50.970;7.192;2023-05-14T03:45:18;99362.59;;;10.89
35960;BMP280;22043;50.970;7.192;2023-05-14T03:47:44;99352.13;;;10.84
35960;BMP280;22043;50.970;7.192;2023-05-14T03:50:11;99385.06;;;11.01
35960;BMP280;22043;50.970;7.192;2023-05-14T03:52:38;99353.31;;;10.83
35960;BMP280;22043;50.970;7.192;2023-05-14T03:55:11;99352.88;;;10.88
35960;BMP280;22043;50.970;7.192;2023-05-14T03:57:39;99379.16;;;11.06
35960;BMP280;22043;50.970;7.192;2023-05-14T04:02:53;99357.88;;;10.93
35960;BMP280;22043;50.970;7.192;2023-05-14T04:05:23;99366.84;;;10.94
35960;BMP280;22043;50.970;7.192;2023-05-14T04:07:49;99386.63;;;11.02
35960;BMP280;22043;50.970;7.192;2023-05-14T04:10:21;99371.56;;;10.90
35960;BMP280;22043;50.970;7.192;2023-05-14T04:12:47;99366.13;;;10.90
35960;BMP280;22043;50.970;7.192;2023-05-14T04:15:19;99374.38;;;10.83
35960;BMP280;22043;50.970;7.192;2023-05-14T04:17:48;99388.75;;;10.87
35960;BMP280;22043;50.970;7.192;2023-05-14T04:20:14;99369.84;;;10.69
35960;BMP280;22043;50.970;7.192;2023-05-14T04:22:43;99367.56;;;10.64
35960;BMP280;22043;50.970;7.192;2023-05-14T04:25:09;99365.97;;;10.67
35960;BMP280;22043;50.970;7.192;2023-05-14T04:27:35;99367.13;;;10.69
35960;BMP280;22043;50.970;7.192;2023-05-14T04:30:05;99362.06;;;10.68
35960;BMP280;22043;50.970;7.192;2023-05-14T04:32:33;99363.53;;;10.76
35960;BMP280;22043;50.970;7.192;2023-05-14T04:34:59;99382.13;;;10.88
35960;BMP280;22043;50.970;7.192;2023-05-14T04:37:25;99361.09;;;10.85
35960;BMP280;22043;50.970;7.192;2023-05-14T04:39:57;99366.88;;;10.90
35960;BMP280;22043;50.970;7.192;2023-05-14T04:42:29;99372.16;;;11.05
35960;BMP280;22043;50.970;7.192;2023-05-14T04:45:00;99375.56;;;11.16
35960;BMP280;22043;50.970;7.192;2023-05-14T04:47:41;99360.06;;;11.06
35960;BMP280;22043;50.970;7.192;2023-05-14T04:50:08;99382.84;;;11.22
35960;BMP280;22043;50.970;7.192;2023-05-14T04:52:37;99390.53;;;11.31
35960;BMP280;22043;50.970;7.192;2023-05-14T04:55:07;99364.63;;;11.16
35960;BMP280;22043;50.970;7.192;2023-05-14T04:57:36;99380.50;;;11.25
35960;BMP280;22043;50.970;7.192;2023-05-14T05:00:08;99365.69;;;11.26
35960;BMP280;22043;50.970;7.192;2023-05-14T05:02:49;99369.13;;;11.30
35960;BMP280;22043;50.970;7.192;2023-05-14T05:05:15;99383.94;;;11.32
35960;BMP280;22043;50.970;7.192;2023-05-14T05:07:41;99390.88;;;11.37
35960;BMP280;22043;50.970;7.192;2023-05-14T05:10:10;99390.88;;;11.37
35960;BMP280;22043;50.970;7.192;2023-05-14T05:12:36;99391.63;;;11.41
35960;BMP280;22043;50.970;7.192;2023-05-14T05:15:03;99378.69;;;11.45
35960;BMP280;22043;50.970;7.192;2023-05-14T05:17:29;99384.50;;;11.47
35960;BMP280;22043;50.970;7.192;2023-05-14T05:19:55;99385.25;;;11.51
35960;BMP280;22043;50.970;7.192;2023-05-14T05:22:22;99388.69;;;11.55
35960;BMP280;22043;50.970;7.192;2023-05-14T05:24:48;99384.28;;;11.61
35960;BMP280;22043;50.970;7.192;2023-05-14T05:27:20;99379.50;;;11.69
35960;BMP280;22043;50.970;7.192;2023-05-14T05:29:54;99375.22;;;11.71
35960;BMP280;22043;50.970;7.192;2023-05-14T05:32:23;99391.00;;;11.84
35960;BMP280;22043;50.970;7.192;2023-05-14T05:34:49;99376.16;;;11.85
35960;BMP280;22043;50.970;7.192;2023-05-14T05:37:16;99389.22;;;12.00
35960;BMP280;22043;50.970;7.192;2023-05-14T05:39:45;99377.50;;;12.00
35960;BMP280;22043;50.970;7.192;2023-05-14T05:42:13;99394.03;;;12.16
35960;BMP280;22043;50.970;7.192;2023-05-14T05:44:38;99389.34;;;12.17
35960;BMP280;22043;50.970;7.192;2023-05-14T05:47:04;99378.75;;;12.19
35960;BMP280;22043;50.970;7.192;2023-05-14T05:49:30;99389.56;;;12.26
35960;BMP280;22043;50.970;7.192;2023-05-14T05:51:55;99379.25;;;12.37
35960;BMP280;22043;50.970;7.192;2023-05-14T05:54:22;99394.81;;;12.60
35960;BMP280;22043;50.970;7.192;2023-05-14T05:56:52;99397.09;;;12.65
35960;BMP280;22043;50.970;7.192;2023-05-14T05:59:17;99377.97;;;12.61
35960;BMP280;22043;50.970;7.192;2023-05-14T06:01:43;99399.88;;;12.81
35960;BMP280;22043;50.970;7.192;2023-05-14T06:04:08;99389.41;;;12.80
35960;BMP280;22043;50.970;7.192;2023-05-14T06:06:34;99387.38;;;12.84
35960;BMP280;22043;50.970;7.192;2023-05-14T06:08:59;99408.88;;;13.02
35960;BMP280;22043;50.970;7.192;2023-05-14T06:11:26;99410.78;;;13.05
35960;BMP280;22043;50.970;7.192;2023-05-14T06:13:52;99391.28;;;13.03
35960;BMP280;22043;50.970;7.192;2023-05-14T06:16:18;99394.28;;;13.08
35960;BMP280;22043;50.970;7.192;2023-05-14T06:18:43;99404.75;;;13.13
35960;BMP280;22043;50.970;7.192;2023-05-14T06:21:14;99393.09;;;13.09
35960;BMP280;22043;50.970;7.192;2023-05-14T06:23:40;99405.94;;;13.12
35960;BMP280;22043;50.970;7.192;2023-05-14T06:26:06;99409.09;;;13.11
35960;BMP280;22043;50.970;7.192;2023-05-14T06:28:31;99401.66;;;13.11
35960;BMP280;22043;50.970;7.192;2023-05-14T06:30:57;99409.72;;;13.18
35960;BMP280;22043;50.970;7.192;2023-05-14T06:33:22;99421.00;;;13.20
35960;BMP280;22043;50.970;7.192;2023-05-14T06:35:55;99406.72;;;13.13
35960;BMP280;22043;50.970;7.192;2023-05-14T06:38:21;99418.38;;;13.17
35960;BMP280;22043;50.970;7.192;2023-05-14T06:40:46;99415.25;;;13.15
35960;BMP280;22043;50.970;7.192;2023-05-14T06:43:12;99409.09;;;13.11
35960;BMP280;22043;50.970;7.192;2023-05-14T06:45:37;99402.91;;;13.07
35960;BMP280;22043;50.970;7.192;2023-05-14T06:48:03;99407.03;;;13.15
35960;BMP280;22043;50.970;7.192;2023-05-14T06:50:29;99406.06;;;13.25
35960;BMP280;22043;50.970;7.192;2023-05-14T06:52:55;99392.16;;;13.16
35960;BMP280;22043;50.970;7.192;2023-05-14T06:55:20;99407.53;;;13.30
35960;BMP280;22043;50.970;7.192;2023-05-14T06:57:46;99406.25;;;13.34
35960;BMP280;22043;50.970;7.192;2023-05-14T07:00:12;99404.28;;;13.35
35960;BMP280;22043;50.970;7.192;2023-05-14T07:02:38;99392.72;;;13.27
35960;BMP280;22043;50.970;7.192;2023-05-14T07:05:04;99386.00;;;13.32
35960;BMP280;22043;50.970;7.192;2023-05-14T07:07:30;99384.78;;;13.33
35960;BMP280;22043;50.970;7.192;2023-05-14T07:09:55;99404.41;;;13.47
35960;BMP280;22043;50.970;7.192;2023-05-14T07:12:21;99387.22;;;13.47
35960;BMP280;22043;50.970;7.192;2023-05-14T07:14:46;99403.59;;;13.50
35960;BMP280;22043;50.970;7.192;2023-05-14T07:17:12;99397.22;;;13.53
35960;BMP280;22043;50.970;7.192;2023-05-14T07:19:40;99404.25;;;13.54
35960;BMP280;22043;50.970;7.192;2023-05-14T07:22:06;99402.97;;;13.59
35960;BMP280;22043;50.970;7.192;2023-05-14T07:24:32;99406.81;;;13.62
35960;BMP280;22043;50.970;7.192;2023-05-14T07:26:57;99402.13;;;13.62
35960;BMP280;22043;50.970;7.192;2023-05-14T07:29:23;99406.69;;;13.69
35960;BMP280;22043;50.970;7.192;2023-05-14T07:31:50;99414.31;;;13.77
35960;BMP280;22043;50.970;7.192;2023-05-14T07:34:15;99385.88;;;13.71
35960;BMP280;22043;50.970;7.192;2023-05-14T07:36:41;99398.91;;;13.83
35960;BMP280;22043;50.970;7.192;2023-05-14T07:39:07;99398.81;;;13.87
35960;BMP280;22043;50.970;7.192;2023-05-14T07:41:32;99404.97;;;13.91
35960;BMP280;22043;50.970;7.192;2023-05-14T07:43:58;99394.09;;;13.88
35960;BMP280;22043;50.970;7.192;2023-05-14T07:46:23;99400.19;;;13.95
35960;BMP280;22043;50.970;7.192;2023-05-14T07:48:50;99388.22;;;13.89
35960;BMP280;22043;50.970;7.192;2023-05-14T07:51:15;99386.16;;;13.93
35960;BMP280;22043;50.970;7.192;2023-05-14T07:53:41;99374.31;;;13.96
35960;BMP280;22043;50.970;7.192;2023-05-14T07:56:07;99394.44;;;14.06
35960;BMP280;22043;50.970;7.192;2023-05-14T08:02:08;99384.03;;;14.01
35960;BMP280;22043;50.970;7.192;2023-05-14T08:04:42;99391.88;;;14.15
35960;BMP280;22043;50.970;7.192;2023-05-14T08:07:10;99387.91;;;14.16
35960;BMP280;22043;50.970;7.192;2023-05-14T08:09:36;99392.38;;;14.26
35960;BMP280;22043;50.970;7.192;2023-05-14T08:12:07;99379.19;;;14.21
35960;BMP280;22043;50.970;7.192;2023-05-14T08:15:03;99396.91;;;14.33
35960;BMP280;22043;50.970;7.192;2023-05-14T08:17:43;99381.72;;;14.28
35960;BMP280;22043;50.970;7.192;2023-05-14T09:50:48;99323.16;;;15.91
35960;BMP280;22043;50.970;7.192;2023-05-14T09:53:14;99324.47;;;15.99
35960;BMP280;22043;50.970;7.192;2023-05-14T09:55:39;99330.78;;;16.09
35960;BMP280;22043;50.970;7.192;2023-05-14T09:58:05;99317.69;;;16.13
35960;BMP280;22043;50.970;7.192;2023-05-14T10:00:32;99329.09;;;16.24
35960;BMP280;22043;50.970;7.192;2023-05-14T10:02:58;99322.19;;;16.41
35960;BMP280;22043;50.970;7.192;2023-05-14T10:05:25;99326.09;;;16.53
35960;BMP280;22043;50.970;7.192;2023-05-14T10:07:53;99308.41;;;16.63
35960;BMP280;22043;50.970;7.192;2023-05-14T10:10:23;99310.75;;;16.74
35960;BMP280;22043;50.970;7.192;2023-05-14T10:12:56;99309.06;;;16.76
35960;BMP280;22043;50.970;7.192;2023-05-14T10:15:26;99303.13;;;16.78
35960;BMP280;22043;50.970;7.192;2023-05-14T10:17:55;99301.78;;;16.82
35960;BMP280;22043;50.970;7.192;2023-05-14T10:20:23;99311.56;;;16.83
35960;BMP280;22043;50.970;7.192;2023-05-14T10:22:49;99319.22;;;16.89
35960;BMP280;22043;50.970;7.192;2023-05-14T10:25:23;99321.84;;;16.92
35960;BMP280;22043;50.970;7.192;2023-05-14T10:27:49;99305.16;;;16.87
35960;BMP280;22043;50.970;7.192;2023-05-14T10:30:15;99313.63;;;17.01
35960;BMP280;22043;50.970;7.192;2023-05-14T10:32:42;99318.25;;;17.13
35960;BMP280;22043;50.970;7.192;2023-05-14T10:35:19;99298.03;;;17.07
35960;BMP280;22043;50.970;7.192;2023-05-14T10:37:49;99308.47;;;17.12
35960;BMP280;22043;50.970;7.192;2023-05-14T10:40:15;99304.34;;;17.17
35960;BMP280;22043;50.970;7.192;2023-05-14T10:42:42;99297.31;;;17.16
35960;BMP280;22043;50.970;7.192;2023-05-14T10:45:10;99302.34;;;17.17
35960;BMP280;22043;50.970;7.192;2023-05-14T10:47:38;99293.19;;;17.21
35960;BMP280;22043;50.970;7.192;2023-05-14T10:50:06;99290.56;;;17.17
35960;BMP280;22043;50.970;7.192;2023-05-14T10:52:32;99276.59;;;17.11
35960;BMP280;22043;50.970;7.192;2023-05-14T10:54:59;99293.22;;;17.30
35960;BMP280;22043;50.970;7.192;2023-05-14T10:57:29;99285.72;;;17.30
35960;BMP280;22043;50.970;7.192;2023-05-14T10:59:57;99277.31;;;17.34
35960;BMP280;22043;50.970;7.192;2023-05-14T11:02:36;99285.16;;;17.54
35960;BMP280;22043;50.970;7.192;2023-05-14T11:05:07;99278.22;;;17.49
35960;BMP280;22043;50.970;7.192;2023-05-14T11:07:36;99271.97;;;17.58
35960;BMP280;22043;50.970;7.192;2023-05-14T11:10:11;99278.09;;;17.71
35960;BMP280;22043;50.970;7.192;2023-05-14T11:12:39;99269.84;;;17.71
35960;BMP280;22043;50.970;7.192;2023-05-14T11:15:09;99276.72;;;17.85
35960;BMP280;22043;50.970;7.192;2023-05-14T11:17:36;99271.50;;;17.87
35960;BMP280;22043;50.970;7.192;2023-05-14T11:20:03;99260.19;;;17.94
35960;BMP280;22043;50.970;7.192;2023-05-14T11:22:30;99255.44;;;17.94
35960;BMP280;22043;50.970;7.192;2023-05-14T11:24:55;99254.94;;;18.05
35960;BMP280;22043;50.970;7.192;2023-05-14T11:27:23;99244.84;;;18.02
35960;BMP280;22043;50.970;7.192;2023-05-14T11:29:49;99250.97;;;18.06
35960;BMP280;22043;50.970;7.192;2023-05-14T11:32:15;99246.94;;;18.16
35960;BMP280;22043;50.970;7.192;2023-05-14T11:34:42;99254.16;;;18.23
35960;BMP280;22043;50.970;7.192;2023-05-14T11:37:26;99252.69;;;18.55
35960;BMP280;22043;50.970;7.192;2023-05-14T11:39:59;99240.75;;;18.39
35960;BMP280;22043;50.970;7.192;2023-05-14T11:42:24;99248.19;;;18.57
35960;BMP280;22043;50.970;7.192;2023-05-14T11:44:51;99240.97;;;18.69
35960;BMP280;22043;50.970;7.192;2023-05-14T11:47:20;99243.00;;;18.59
35960;BMP280;22043;50.970;7.192;2023-05-14T11:49:46;99248.19;;;18.90
35960;BMP280;22043;50.970;7.192;2023-05-14T11:55:41;99227.88;;;18.79
35960;BMP280;22043;50.970;7.192;2023-05-14T11:58:07;99212.25;;;18.66
35960;BMP280;22043;50.970;7.192;2023-05-14T12:00:32;99223.44;;;18.72
35960;BMP280;22043;50.970;7.192;2023-05-14T12:02:58;99230.94;;;19.04
35960;BMP280;22043;50.970;7.192;2023-05-14T12:05:24;99229.22;;;19.07
35960;BMP280;22043;50.970;7.192;2023-05-14T12:07:50;99211.34;;;18.93
35960;BMP280;22043;50.970;7.192;2023-05-14T12:10:16;99210.19;;;18.85
35960;BMP280;22043;50.970;7.192;2023-05-14T12:12:44;99213.75;;;18.77
35960;BMP280;22043;50.970;7.192;2023-05-14T12:15:12;99219.28;;;18.77
35960;BMP280;22043;50.970;7.192;2023-05-14T12:17:38;99208.13;;;18.62
35960;BMP280;22043;50.970;7.192;2023-05-14T12:20:07;99199.47;;;18.54
35960;BMP280;22043;50.970;7.192;2023-05-14T12:22:34;99209.28;;;18.79
35960;BMP280;22043;50.970;7.192;2023-05-14T12:25:00;99196.19;;;18.65
35960;BMP280;22043;50.970;7.192;2023-05-14T12:27:28;99199.63;;;18.51
35960;BMP280;22043;50.970;7.192;2023-05-14T12:30:04;99196.59;;;18.39
35960;BMP280;22043;50.970;7.192;2023-05-14T12:32:31;99202.16;;;18.30
35960;BMP280;22043;50.970;7.192;2023-05-14T12:34:58;99194.81;;;18.27
35960;BMP280;22043;50.970;7.192;2023-05-14T12:37:23;99190.78;;;18.28
35960;BMP280;22043;50.970;7.192;2023-05-14T12:39:49;99200.72;;;18.44
35960;BMP280;22043;50.970;7.192;2023-05-14T12:42:15;99184.44;;;18.55
35960;BMP280;22043;50.970;7.192;2023-05-14T12:44:41;99173.97;;;18.59
35960;BMP280;22043;50.970;7.192;2023-05-14T12:47:06;99179.69;;;18.80
35960;BMP280;22043;50.970;7.192;2023-05-14T12:49:32;99176.38;;;18.90
35960;BMP280;22043;50.970;7.192;2023-05-14T12:51:57;99161.91;;;18.95
35960;BMP280;22043;50.970;7.192;2023-05-14T12:54:23;99163.25;;;19.00
35960;BMP280;22043;50.970;7.192;2023-05-14T12:56:48;99150.25;;;19.00
35960;BMP280;22043;50.970;7.192;2023-05-14T12:59:15;99169.91;;;19.17
35960;BMP280;22043;50.970;7.192;2023-05-14T13:02:13;99145.03;;;19.17
35960;BMP280;22043;50.970;7.192;2023-05-14T13:05:02;99158.31;;;19.28
35960;BMP280;22043;50.970;7.192;2023-05-14T13:10:56;99156.41;;;19.34
35960;BMP280;22043;50.970;7.192;2023-05-14T13:13:22;99158.97;;;19.23
35960;BMP280;22043;50.970;7.192;2023-05-14T13:15:48;99151.03;;;19.16
35960;BMP280;22043;50.970;7.192;2023-05-14T13:18:16;99155.63;;;19.19
35960;BMP280;22043;50.970;7.192;2023-05-14T13:20:42;99148.28;;;19.16
35960;BMP280;22043;50.970;7.192;2023-05-14T13:23:09;99151.44;;;19.23
35960;BMP280;22043;50.970;7.192;2023-05-14T13:25:35;99145.91;;;19.23
35960;BMP280;22043;50.970;7.192;2023-05-14T13:28:00;99141.03;;;19.18
35960;BMP280;22043;50.970;7.192;2023-05-14T13:30:26;99136.28;;;19.19
35960;BMP280;22043;50.970;7.192;2023-05-14T13:32:56;99144.41;;;19.37
35960;BMP280;22043;50.970;7.192;2023-05-14T13:35:22;99129.44;;;19.29
35960;BMP280;22043;50.970;7.192;2023-05-14T13:37:48;99131.44;;;19.43
35960;BMP280;22043;50.970;7.192;2023-05-14T13:40:13;99128.56;;;19.52
35960;BMP280;22043;50.970;7.192;2023-05-14T13:42:39;99133.94;;;19.56
35960;BMP280;22043;50.970;7.192;2023-05-14T13:45:05;99138.91;;;19.52
35960;BMP280;22043;50.970;7.192;2023-05-14T13:47:31;99122.66;;;19.45
35960;BMP280;22043;50.970;7.192;2023-05-14T13:49:57;99143.38;;;19.64
35960;BMP280;22043;50.970;7.192;2023-05-14T13:52:23;99137.25;;;19.75
35960;BMP280;22043;50.970;7.192;2023-05-14T13:54:49;99136.88;;;19.67
35960;BMP280;22043;50.970;7.192;2023-05-14T13:57:15;99112.19;;;19.49
35960;BMP280;22043;50.970;7.192;2023-05-14T13:59:41;99115.53;;;19.38
35960;BMP280;22043;50.970;7.192;2023-05-14T14:02:07;99121.72;;;19.33
35960;BMP280;22043;50.970;7.192;2023-05-14T14:04:33;99122.84;;;19.26
35960;BMP280;22043;50.970;7.192;2023-05-14T14:06:59;99125.25;;;19.33
35960;BMP280;22043;50.970;7.192;2023-05-14T14:09:24;99118.19;;;19.32
35960;BMP280;22043;50.970;7.192;2023-05-14T14:11:50;99111.31;;;19.28
35960;BMP280;22043;50.970;7.192;2023-05-14T14:14:16;99098.06;;;19.32
35960;BMP280;22043;50.970;7.192;2023-05-14T14:16:42;99095.22;;;19.41
35960;BMP280;22043;50.970;7.192;2023-05-14T14:19:09;99090.44;;;19.56
35960;BMP280;22043;50.970;7.192;2023-05-14T14:21:35;99096.91;;;19.83
35960;BMP280;22043;50.970;7.192;2023-05-14T14:24:04;99095.75;;;19.75
35960;BMP280;22043;50.970;7.192;2023-05-14T14:26:30;99077.16;;;19.75
35960;BMP280;22043;50.970;7.192;2023-05-14T14:28:59;99075.91;;;19.91
35960;BMP280;22043;50.970;7.192;2023-05-14T14:31:24;99078.84;;;19.87
35960;BMP280;22043;50.970;7.192;2023-05-14T14:33:50;99074.94;;;19.94
35960;BMP280;22043;50.970;7.192;2023-05-14T14:36:16;99079.84;;;20.19
35960;BMP280;22043;50.970;7.192;2023-05-14T14:38:41;99078.84;;;20.02
35960;BMP280;22043;50.970;7.192;2023-05-14T14:41:08;99085.31;;;20.14
35960;BMP280;22043;50.970;7.192;2023-05-14T14:43:35;99088.78;;;19.94
35960;BMP280;22043;50.970;7.192;2023-05-14T14:46:01;99080.91;;;19.72
35960;BMP280;22043;50.970;7.192;2023-05-14T14:48:28;99083.88;;;19.68
35960;BMP280;22043;50.970;7.192;2023-05-14T14:51:04;99072.91;;;19.59
35960;BMP280;22043;50.970;7.192;2023-05-14T14:53:31;99067.06;;;19.57
35960;BMP280;22043;50.970;7.192;2023-05-14T14:56:10;99076.56;;;19.51
35960;BMP280;22043;50.970;7.192;2023-05-14T14:58:36;99070.91;;;19.30
35960;BMP280;22043;50.970;7.192;2023-05-14T15:01:02;99068.56;;;19.38
35960;BMP280;22043;50.970;7.192;2023-05-14T15:03:37;99072.16;;;19.44
35960;BMP280;22043;50.970;7.192;2023-05-14T15:09:25;99091.50;;;19.44
35960;BMP280;22043;50.970;7.192;2023-05-14T15:11:50;99082.25;;;19.32
35960;BMP280;22043;50.970;7.192;2023-05-14T15:14:16;99067.28;;;19.24
35960;BMP280;22043;50.970;7.192;2023-05-14T15:16:44;99072.06;;;19.39
35960;BMP280;22043;50.970;7.192;2023-05-14T15:19:10;99062.41;;;19.49
35960;BMP280;22043;50.970;7.192;2023-05-14T15:21:35;99063.56;;;19.42
35960;BMP280;22043;50.970;7.192;2023-05-14T15:24:04;99077.75;;;19.50
35960;BMP280;22043;50.970;7.192;2023-05-14T15:26:30;99088.72;;;19.44
35960;BMP280;22043;50.970;7.192;2023-05-14T15:28:59;99091.78;;;19.46
35960;BMP280;22043;50.970;7.192;2023-05-14T15:31:24;99062.91;;;19.18
35960;BMP280;22043;50.970;7.192;2023-05-14T15:33:51;99060.31;;;19.14
35960;BMP280;22043;50.970;7.192;2023-05-14T15:36:17;99065.94;;;19.20
35960;BMP280;22043;50.970;7.192;2023-05-14T15:38:42;99066.81;;;19.26
35960;BMP280;22043;50.970;7.192;2023-05-14T15:41:08;99058.91;;;19.33
35960;BMP280;22043;50.970;7.192;2023-05-14T15:43:34;99061.47;;;19.37
35960;BMP280;22043;50.970;7.192;2023-05-14T15:45:59;99049.56;;;19.31
35960;BMP280;22043;50.970;7.192;2023-05-14T15:48:25;99058.22;;;19.39
35960;BMP280;22043;50.970;7.192;2023-05-14T15:50:52;99062.72;;;19.36
35960;BMP280;22043;50.970;7.192;2023-05-14T15:53:18;99054.13;;;19.34
35960;BMP280;22043;50.970;7.192;2023-05-14T15:55:44;99060.59;;;19.46
35960;BMP280;22043;50.970;7.192;2023-05-14T15:58:11;99059.53;;;19.58
35960;BMP280;22043;50.970;7.192;2023-05-14T16:00:37;99052.25;;;19.55
35960;BMP280;22043;50.970;7.192;2023-05-14T16:03:03;99060.31;;;19.58
35960;BMP280;22043;50.970;7.192;2023-05-14T16:05:28;99050.88;;;19.65
35960;BMP280;22043;50.970;7.192;2023-05-14T16:07:54;99050.22;;;19.55
35960;BMP280;22043;50.970;7.192;2023-05-14T16:10:20;99049.66;;;19.51